KRCR/RCR METAR and TAF weather

Enter ICAO airport designator
Station Type Date Time Source
KRCR METAR 2020/06/05 09:15 UTC NOAA

KRCR 050915Z AUTO 00000KT 4SM BR CLR 18/17 A2986 RMK AO2


Station Type Date Time Source
KRCR Decoded METAR 2020/06/05 09:15 UTC NOAA

Station name not available
Jun 05, 2020 - 05:15 AM EDT / 2020.06.05 0915 UTC
Wind: Calm:0
Visibility: 4 mile(s):0
Sky conditions: clear
Weather: mist
Temperature: 64 F (18 C)
Dew Point: 62 F (17 C)
Relative Humidity: 93%
Pressure (altimeter): 29.86 in. Hg (1011 hPa)
ob: KRCR 050915Z AUTO 00000KT 4SM BR CLR 18/17 A2986 RMK AO2
cycle: 9

Station Type Date Time Source
KRCR TAF UTC NOAA

Error!

Example: see airport list